Time;durP1;ratioP1;P1;durP2;ratioP2;P2;SDS_P1;SDS_P2;PMS_P1;PMS_P2;Temp;Humidity;BMP_temperature;BMP_pressure;BME280_temperature;BME280_humidity;BME280_pressure;Samples;Min_cycle;Max_cycle;Signal;HPM_P1;HPM_P2
2022/01/23 00:00:31;;;;;;;;;46.50;39.25;;;;;9.27;58.84;103035.69;2077459;28;47449;-61
2022/01/23 00:01:37;;;;;;;;;41.40;35.40;;;;;9.27;58.59;103040.09;2064932;28;47194;-60
2022/01/23 00:02:37;;;;;;;;;47.20;38.80;;;;;9.28;58.54;103037.50;2070385;28;47869;-61
2022/01/23 00:03:44;;;;;;;;;36.75;33.25;;;;;9.29;58.47;103039.28;2080424;28;47390;-61
2022/01/23 00:04:45;;;;;;;;;37.80;34.40;;;;;9.28;58.49;103045.47;2078172;28;47778;-60
2022/01/23 00:05:48;;;;;;;;;45.00;38.00;;;;;9.29;58.63;103041.06;2079928;28;47984;-60
2022/01/23 00:06:49;;;;;;;;;48.00;38.00;;;;;9.27;58.58;103041.00;2077239;28;47587;-60
2022/01/23 00:07:51;;;;;;;;;40.00;35.50;;;;;9.28;58.71;103041.91;2078512;28;47378;-62
2022/01/23 00:08:53;;;;;;;;;39.40;35.60;;;;;9.28;58.68;103048.09;2075114;28;47319;-61
2022/01/23 00:09:53;;;;;;;;;45.00;37.80;;;;;9.27;58.67;103045.41;2065747;28;47247;-60
2022/01/23 00:10:55;;;;;;;;;43.25;37.25;;;;;9.26;58.64;103048.91;2070106;28;47138;-62
2022/01/23 00:11:57;;;;;;;;;40.00;34.60;;;;;9.26;58.68;103049.81;2078667;28;47371;-60
2022/01/23 00:13:11;;;;;;;;;42.40;36.40;;;;;9.26;58.58;103043.63;2076267;28;47259;-60
2022/01/23 00:18:07;;;;;;;;;46.80;41.00;;;;;9.25;58.89;103049.78;2075718;28;47255;-61
2022/01/23 00:19:08;;;;;;;;;44.25;37.75;;;;;9.25;58.58;103044.47;2078964;28;46657;-60
2022/01/23 00:20:14;;;;;;;;;47.40;38.20;;;;;9.25;58.79;103042.72;2079821;28;47371;-60
2022/01/23 00:21:14;;;;;;;;;50.00;39.60;;;;;9.25;58.79;103041.81;2077429;28;47409;-62
2022/01/23 00:22:15;;;;;;;;;48.75;36.25;;;;;9.26;58.43;103041.84;2078142;28;47767;-60
2022/01/23 00:31:19;;;;;;;;;47.60;39.20;;;;;9.23;58.73;103036.50;2079800;28;47218;-61
2022/01/23 00:32:19;;;;;;;;;42.50;36.25;;;;;9.24;58.41;103034.75;2077528;28;47514;-61
2022/01/23 00:33:20;;;;;;;;;47.75;36.50;;;;;9.23;58.59;103036.50;2080095;28;47451;-61
2022/01/23 00:34:21;;;;;;;;;36.00;33.60;;;;;9.22;58.80;103033.81;2079942;28;47558;-62
2022/01/23 00:35:22;;;;;;;;;48.50;38.25;;;;;9.24;58.71;103037.41;2079766;28;46727;-60
2022/01/23 00:36:24;;;;;;;;;42.80;37.00;;;;;9.23;58.52;103031.19;2079764;28;47767;-60
2022/01/23 00:37:25;;;;;;;;;40.60;36.00;;;;;9.23;58.60;103027.66;2077361;28;47664;-61
2022/01/23 00:38:25;;;;;;;;;46.00;39.25;;;;;9.22;58.78;103025.88;2079644;28;47239;-60
2022/01/23 00:39:28;;;;;;;;;34.80;32.40;;;;;9.19;58.62;103016.13;2079600;28;46424;-61
2022/01/23 00:40:30;;;;;;;;;49.25;38.75;;;;;9.22;58.72;103023.22;2075355;28;47896;-61
2022/01/23 00:41:31;;;;;;;;;42.20;35.60;;;;;9.21;58.67;103021.44;2079738;28;46899;-61
2022/01/23 00:42:32;;;;;;;;;36.00;33.00;;;;;9.21;58.57;103022.34;2079726;28;45874;-60
2022/01/23 00:43:35;;;;;;;;;37.20;35.00;;;;;9.22;58.60;103021.47;2075683;28;47028;-61
2022/01/23 00:44:37;;;;;;;;;40.80;36.00;;;;;9.22;58.64;103026.78;2079849;28;47376;-61
2022/01/23 00:45:45;;;;;;;;;46.20;37.40;;;;;9.23;58.59;103023.25;2076046;28;47658;-61
2022/01/23 00:46:50;;;;;;;;;46.40;37.60;;;;;9.24;58.60;103026.78;2075864;28;47749;-61
2022/01/23 00:47:54;;;;;;;;;42.80;37.00;;;;;9.24;58.64;103024.16;2077592;28;47349;-61
2022/01/23 00:49:56;;;;;;;;;42.80;35.80;;;;;9.23;58.83;103023.25;2079708;28;47406;-63
2022/01/23 00:50:56;;;;;;;;;41.25;37.00;;;;;9.23;58.81;103012.66;2080225;28;45557;-61
2022/01/23 00:51:56;;;;;;;;;44.75;36.75;;;;;9.24;58.73;103018.84;2076615;28;47318;-59
2022/01/23 00:52:57;;;;;;;;;48.50;36.25;;;;;9.24;58.88;103016.19;2076841;28;47259;-61
2022/01/23 00:53:59;;;;;;;;;29.25;27.25;;;;;9.24;58.64;103022.38;2078349;28;47030;-60
2022/01/23 00:55:00;;;;;;;;;39.40;35.60;;;;;9.24;58.49;103009.16;2077554;28;47779;-62
2022/01/23 00:56:00;;;;;;;;;42.00;36.00;;;;;9.25;58.87;103017.97;2070148;28;47733;-62
2022/01/23 00:57:01;;;;;;;;;43.75;36.50;;;;;9.23;58.54;103004.72;2071328;28;47563;-63
2022/01/23 00:58:02;;;;;;;;;39.25;34.00;;;;;9.25;58.53;103018.88;2074307;28;47754;-61
2022/01/23 00:59:03;;;;;;;;;36.60;34.40;;;;;9.24;58.53;103011.78;2079368;28;48168;-63
2022/01/23 01:00:06;;;;;;;;;38.20;29.60;;;;;9.26;58.52;103006.53;2076535;28;48126;-60
2022/01/23 01:01:06;;;;;;;;;37.80;32.40;;;;;9.25;58.48;103004.75;2062767;28;47168;-60
2022/01/23 01:02:07;;;;;;;;;35.75;32.50;;;;;9.24;58.53;103006.50;2069874;28;47798;-61
2022/01/23 01:03:08;;;;;;;;;42.75;36.25;;;;;9.25;58.60;103007.38;2077710;28;47240;-61
2022/01/23 01:04:08;;;;;;;;;37.00;34.00;;;;;9.24;58.60;103003.84;2071499;28;47617;-61
2022/01/23 01:05:09;;;;;;;;;40.25;35.75;;;;;9.25;58.69;103004.75;2072108;28;47731;-62
2022/01/23 01:06:11;;;;;;;;;33.40;32.80;;;;;9.26;58.47;103006.53;2068207;28;45332;-61
2022/01/23 01:07:11;;;;;;;;;44.20;36.40;;;;;9.25;58.61;102999.44;2062310;28;47680;-60
2022/01/23 01:08:12;;;;;;;;;41.75;35.75;;;;;9.24;58.54;103001.19;2072330;28;47216;-62
2022/01/23 01:09:14;;;;;;;;;41.00;36.00;;;;;9.24;58.54;103002.94;2071265;28;47713;-61
2022/01/23 01:10:22;;;;;;;;;38.40;34.00;;;;;9.23;58.50;103001.16;2079029;28;47431;-60
2022/01/23 01:12:41;;;;;;;;;38.80;35.00;;;;;9.23;58.56;103010.00;2079181;28;47291;-60
2022/01/23 01:16:39;;;;;;;;;37.80;33.60;;;;;9.21;58.56;103013.50;2063516;28;46932;-62
2022/01/23 01:32:07;;;;;;;;;35.00;32.40;;;;;9.16;58.67;103002.81;2079217;28;47413;-60
2022/01/23 01:33:23;;;;;;;;;41.60;36.20;;;;;9.17;58.39;103011.66;2079506;28;47649;-60
2022/01/23 01:34:52;;;;;;;;;40.00;33.20;;;;;9.16;58.46;103016.06;2078865;28;47694;-60
2022/01/23 01:36:19;;;;;;;;;31.20;29.20;;;;;9.16;58.62;103017.81;2072680;28;47819;-60
2022/01/23 01:37:06;;;;;;;;;38.80;35.00;;;;;9.16;58.33;103015.16;2075931;28;47298;-60
2022/01/23 01:38:06;;;;;;;;;34.80;33.00;;;;;9.14;58.52;103016.00;2076270;28;47757;-59
2022/01/23 01:39:07;;;;;;;;;29.80;27.60;;;;;9.14;58.54;103010.69;2073656;28;46185;-60
2022/01/23 01:40:08;;;;;;;;;29.25;24.50;;;;;9.14;58.52;103007.16;2073030;28;47720;-61
2022/01/23 01:41:08;;;;;;;;;36.25;32.50;;;;;9.14;58.56;103004.50;2076841;28;47163;-60
2022/01/23 01:42:09;;;;;;;;;40.75;33.00;;;;;9.14;58.49;103008.06;2071843;28;47435;-60
2022/01/23 01:43:09;;;;;;;;;36.50;29.25;;;;;9.13;58.41;103006.25;2075283;28;46990;-61
2022/01/23 01:44:11;;;;;;;;;29.50;28.75;;;;;9.13;58.58;103010.66;2075841;28;47264;-61
2022/01/23 01:45:12;;;;;;;;;30.80;27.00;;;;;9.14;58.42;103012.47;2079184;28;47125;-61
2022/01/23 01:46:13;;;;;;;;;36.60;32.40;;;;;9.14;58.44;103013.34;2077312;28;47452;-61
2022/01/23 01:47:13;;;;;;;;;35.50;32.50;;;;;9.14;58.54;103010.69;2075527;28;46984;-61
2022/01/23 01:48:17;;;;;;;;;33.75;29.25;;;;;9.14;58.69;103005.41;2073858;28;45186;-60
2022/01/23 01:49:30;;;;;;;;;36.60;32.60;;;;;9.14;58.37;103000.09;2078834;28;46868;-60
2022/01/23 01:50:31;;;;;;;;;31.20;28.80;;;;;9.14;58.32;103004.50;2079353;28;48015;-61
2022/01/23 01:51:33;;;;;;;;;35.40;31.00;;;;;9.14;58.21;103001.88;2073037;28;47063;-60
2022/01/23 01:52:34;;;;;;;;;28.40;26.60;;;;;9.13;58.40;103003.63;2074755;28;47262;-60
2022/01/23 01:53:35;;;;;;;;;31.60;29.20;;;;;9.13;58.64;103008.03;2077691;28;47545;-60
2022/01/23 01:54:35;;;;;;;;;35.50;32.50;;;;;9.13;58.42;103002.72;2079518;28;47594;-60
2022/01/23 01:55:41;;;;;;;;;35.50;31.25;;;;;9.13;58.27;103002.72;2079543;28;47138;-61
2022/01/23 01:57:04;;;;;;;;;29.00;28.60;;;;;9.13;58.35;103008.03;2073470;28;47193;-60
2022/01/23 01:58:06;;;;;;;;;31.20;30.80;;;;;9.12;58.24;103009.78;2077541;28;45141;-60
2022/01/23 02:02:57;;;;;;;;;27.40;22.80;;;;;9.10;58.31;103003.56;2078456;28;47786;-59
2022/01/23 02:09:10;;;;;;;;;30.60;28.40;;;;;9.05;57.90;103005.22;2069017;28;46950;-61
2022/01/23 02:10:11;;;;;;;;;32.60;27.00;;;;;9.06;57.92;103000.84;2069635;28;47694;-60
2022/01/23 02:11:17;;;;;;;;;23.50;22.50;;;;;9.04;57.94;102999.91;2077635;28;47187;-60
2022/01/23 02:12:58;;;;;;;;;29.80;27.80;;;;;9.04;58.11;102999.91;2078247;28;47891;-61
2022/01/23 02:14:10;;;;;;;;;32.00;29.00;;;;;9.04;58.11;103002.56;2073992;28;47151;-59
2022/01/23 02:16:58;;;;;;;;;27.00;27.00;;;;;9.02;58.03;102997.22;2079300;28;47197;-61
2022/01/23 02:50:49;;;;;;;;;39.20;31.80;;;;;8.96;58.21;102964.41;2078914;28;47318;-61
2022/01/23 02:55:42;;;;;;;;;35.20;34.00;;;;;8.97;58.39;102963.53;2073266;28;47680;-61
2022/01/23 02:56:49;;;;;;;;;29.80;28.20;;;;;8.97;58.48;102963.53;2073698;28;47555;-60
2022/01/23 02:57:59;;;;;;;;;31.60;30.80;;;;;8.97;58.23;102955.59;2077757;28;47801;-60
2022/01/23 02:59:10;;;;;;;;;28.00;26.60;;;;;8.95;58.19;102958.22;2069959;28;47887;-60
2022/01/23 03:00:15;;;;;;;;;34.60;30.20;;;;;8.96;58.39;102960.00;2075256;28;47694;-61
2022/01/23 03:01:18;;;;;;;;;33.20;32.40;;;;;8.97;58.37;102960.91;2076157;28;47172;-60
2022/01/23 03:02:30;;;;;;;;;38.80;33.80;;;;;8.95;58.56;102952.94;2069889;28;47792;-62
2022/01/23 03:03:35;;;;;;;;;54.20;43.60;;;;;8.96;58.20;102957.34;2077428;28;48702;-61
2022/01/23 03:04:40;;;;;;;;;48.80;41.40;;;;;8.96;58.46;102954.72;2075507;28;48085;-60
2022/01/23 03:05:41;;;;;;;;;44.40;36.60;;;;;8.96;58.08;102954.72;2070199;28;47353;-60
2022/01/23 03:10:04;;;;;;;;;33.20;28.80;;;;;8.96;58.23;102952.06;2070888;28;47580;-60
2022/01/23 03:11:14;;;;;;;;;33.20;28.20;;;;;8.97;58.22;102952.97;2072219;28;47399;-60
2022/01/23 03:26:50;;;;;;;;;29.40;29.40;;;;;8.97;58.18;102937.97;2069433;28;47583;-60
2022/01/23 03:28:05;;;;;;;;;31.20;29.00;;;;;8.97;58.47;102940.59;2077490;28;47845;-60
2022/01/23 03:29:24;;;;;;;;;30.60;30.60;;;;;8.98;58.41;102938.84;2072196;28;47546;-60
2022/01/23 03:30:29;;;;;;;;;31.40;29.40;;;;;8.97;58.28;102937.06;2071607;28;47158;-60
2022/01/23 03:32:45;;;;;;;;;32.00;29.60;;;;;8.98;58.36;102936.19;2082933;28;48214;-61
2022/01/23 03:33:46;;;;;;;;;37.00;34.40;;;;;8.98;58.22;102938.84;2080452;28;47486;-60
2022/01/23 03:34:47;;;;;;;;;30.50;28.50;;;;;8.97;58.23;102934.41;2078071;28;47456;-62
2022/01/23 03:35:47;;;;;;;;;30.50;28.00;;;;;8.97;58.27;102937.06;2071280;28;47535;-60
2022/01/23 03:36:47;;;;;;;;;25.00;24.50;;;;;8.98;58.19;102938.84;2072075;28;46622;-60
2022/01/23 03:37:48;;;;;;;;;34.25;29.00;;;;;8.96;58.21;102941.47;2070225;28;47531;-61
2022/01/23 03:38:49;;;;;;;;;33.00;30.75;;;;;8.95;58.13;102931.75;2063274;28;47311;-61
2022/01/23 03:39:49;;;;;;;;;36.00;32.00;;;;;8.95;58.40;102933.50;2062721;28;47027;-60
2022/01/23 03:40:50;;;;;;;;;31.25;27.50;;;;;8.97;58.54;102939.72;2069373;28;47186;-61
2022/01/23 03:41:51;;;;;;;;;29.50;24.75;;;;;8.94;58.32;102935.25;2077254;28;47324;-60
2022/01/23 03:42:57;;;;;;;;;32.75;31.00;;;;;8.95;58.36;102930.84;2077895;28;47776;-60
2022/01/23 03:43:58;;;;;;;;;31.20;29.80;;;;;8.95;58.35;102930.84;2079047;28;47424;-61
2022/01/23 03:45:56;;;;;;;;;35.00;31.25;;;;;8.96;58.29;102929.97;2076178;28;47409;-62
2022/01/23 03:47:38;;;;;;;;;24.80;23.00;;;;;8.96;58.19;102930.88;2077507;28;47564;-61
2022/01/23 03:49:47;;;;;;;;;36.20;29.40;;;;;8.97;58.32;102934.41;2072297;28;45204;-59
2022/01/23 03:50:48;;;;;;;;;30.80;28.00;;;;;8.96;58.16;102932.63;2078291;28;47478;-60
2022/01/23 03:51:48;;;;;;;;;37.00;32.75;;;;;8.96;58.14;102937.94;2079063;28;47165;-61
2022/01/23 03:52:49;;;;;;;;;34.50;29.75;;;;;8.94;58.05;102931.72;2078979;28;47654;-60
2022/01/23 03:53:49;;;;;;;;;30.50;27.25;;;;;8.95;57.96;102931.75;2073869;28;47269;-60
2022/01/23 03:54:50;;;;;;;;;38.50;32.25;;;;;8.96;58.01;102929.97;2073722;28;47868;-61
2022/01/23 03:55:51;;;;;;;;;35.75;30.00;;;;;8.95;58.20;102931.75;2074594;28;47356;-60
2022/01/23 03:56:51;;;;;;;;;33.80;30.60;;;;;8.94;58.00;102929.97;2077158;28;47312;-61
2022/01/23 03:57:52;;;;;;;;;31.25;28.75;;;;;8.95;58.41;102930.84;2073810;28;47340;-60
2022/01/23 03:58:52;;;;;;;;;38.25;34.00;;;;;8.95;58.22;102929.09;2076695;28;47076;-60
2022/01/23 03:59:52;;;;;;;;;35.75;31.50;;;;;8.95;58.17;102926.44;2076073;28;46134;-60
2022/01/23 04:00:53;;;;;;;;;35.75;30.25;;;;;8.94;58.16;102929.97;2074143;28;47564;-61
2022/01/23 04:01:54;;;;;;;;;36.00;30.75;;;;;8.94;58.33;102927.31;2078487;28;46201;-62
2022/01/23 04:02:54;;;;;;;;;36.00;32.25;;;;;8.93;58.29;102936.13;2074011;28;46343;-60
2022/01/23 04:03:59;;;;;;;;;32.75;29.50;;;;;8.93;58.33;102922.00;2079304;28;47509;-61
2022/01/23 04:05:00;;;;;;;;;32.40;27.00;;;;;8.93;58.16;102919.34;2079282;28;47269;-60
2022/01/23 04:06:00;;;;;;;;;35.50;31.00;;;;;8.93;58.21;102925.53;2078868;28;48289;-61
2022/01/23 04:07:00;;;;;;;;;30.50;28.75;;;;;8.94;58.46;102929.06;2075711;28;47281;-61
2022/01/23 04:08:01;;;;;;;;;39.00;35.00;;;;;8.94;58.38;102926.41;2076389;28;47526;-60
2022/01/23 04:09:01;;;;;;;;;32.25;31.50;;;;;8.93;58.43;102920.22;2072526;28;45521;-61
2022/01/23 04:10:03;;;;;;;;;37.50;34.25;;;;;8.93;58.23;102922.00;2077942;28;46758;-61
2022/01/23 04:11:05;;;;;;;;;34.20;33.00;;;;;8.94;58.22;102921.13;2079703;28;47317;-62
2022/01/23 04:12:08;;;;;;;;;32.60;27.00;;;;;8.94;58.42;102918.47;2077090;28;46940;-61
2022/01/23 04:14:12;;;;;;;;;37.25;30.00;;;;;8.93;58.40;102916.69;2074865;28;47478;-61
2022/01/23 04:15:51;;;;;;;;;32.00;30.00;;;;;8.94;58.29;102921.13;2076429;28;46863;-61
2022/01/23 04:34:30;;;;;;;;;28.60;23.40;;;;;8.93;58.47;102935.22;2068184;28;47542;-61
2022/01/23 04:45:52;;;;;;;;;31.80;30.60;;;;;8.92;58.51;102925.50;2073466;28;47634;-60
2022/01/23 04:48:50;;;;;;;;;37.00;31.60;;;;;8.91;58.36;102923.72;2070175;28;47636;-61
2022/01/23 05:00:00;;;;;;;;;28.80;27.00;;;;;8.84;58.46;102931.50;2070559;28;45485;-62
2022/01/23 05:01:06;;;;;;;;;32.40;26.00;;;;;8.84;58.44;102930.63;2070360;28;46608;-61
2022/01/23 05:04:33;;;;;;;;;31.20;28.80;;;;;8.84;58.42;102930.63;2064522;28;46260;-60
2022/01/23 05:05:36;;;;;;;;;31.80;30.20;;;;;8.84;58.56;102933.28;2065258;28;47220;-62
2022/01/23 05:06:57;;;;;;;;;36.40;30.60;;;;;8.84;58.92;102930.63;2064921;28;47986;-61
2022/01/23 05:08:04;;;;;;;;;31.40;28.00;;;;;8.83;58.56;102926.19;2064825;28;47348;-61
2022/01/23 05:09:06;;;;;;;;;30.60;27.40;;;;;8.83;58.46;102931.50;2064018;28;47157;-61
2022/01/23 05:10:07;;;;;;;;;29.80;28.20;;;;;8.84;58.56;102935.91;2064654;28;47330;-60
2022/01/23 05:11:08;;;;;;;;;28.25;27.50;;;;;8.83;58.59;102929.72;2068208;28;47231;-60
2022/01/23 05:12:13;;;;;;;;;37.00;33.40;;;;;8.84;58.40;102933.28;2072169;28;48560;-61
2022/01/23 05:13:13;;;;;;;;;31.80;30.00;;;;;8.84;58.58;102938.56;2071874;28;45395;-61
2022/01/23 05:14:15;;;;;;;;;26.25;23.75;;;;;8.84;58.62;102927.97;2072309;28;47380;-61
2022/01/23 05:15:16;;;;;;;;;40.20;34.20;;;;;8.83;58.34;102929.72;2071800;28;47496;-61
2022/01/23 05:16:18;;;;;;;;;34.75;31.00;;;;;8.85;58.50;102929.75;2069517;28;46693;-60
2022/01/23 05:17:19;;;;;;;;;33.60;31.00;;;;;8.83;58.56;102924.44;2063817;28;48889;-60
2022/01/23 05:18:20;;;;;;;;;34.25;31.00;;;;;8.84;58.55;102931.50;2063987;28;48236;-60
2022/01/23 05:19:21;;;;;;;;;27.75;27.25;;;;;8.84;58.57;102927.97;2070827;28;48278;-61
2022/01/23 05:20:25;;;;;;;;;31.00;30.00;;;;;8.82;58.42;102927.94;2069647;28;47496;-61
2022/01/23 05:22:51;;;;;;;;;28.40;26.20;;;;;8.82;58.67;102941.19;2066693;28;47309;-61
2022/01/23 05:23:52;;;;;;;;;30.80;27.80;;;;;8.82;58.69;102932.34;2071924;28;47385;-61
2022/01/23 05:25:53;;;;;;;;;32.00;30.00;;;;;8.82;58.60;102935.88;2066909;28;48189;-61
2022/01/23 05:26:59;;;;;;;;;31.25;30.50;;;;;8.83;58.68;102945.63;2068911;28;48230;-60
2022/01/23 05:27:59;;;;;;;;;28.40;28.20;;;;;8.83;58.49;102942.97;2061883;28;48391;-60
2022/01/23 05:29:00;;;;;;;;;28.75;27.50;;;;;8.83;58.46;102948.28;2057678;28;47762;-61
2022/01/23 05:30:01;;;;;;;;;30.50;26.00;;;;;8.82;58.43;102938.53;2071328;28;47648;-61
2022/01/23 05:31:01;;;;;;;;;23.60;23.40;;;;;8.82;58.59;102937.66;2071941;28;46467;-61
2022/01/23 05:32:03;;;;;;;;;34.25;32.50;;;;;8.81;58.43;102939.41;2059094;28;45359;-61
2022/01/23 05:33:04;;;;;;;;;30.00;25.20;;;;;8.81;58.50;102943.81;2063222;28;47899;-61
2022/01/23 05:34:05;;;;;;;;;33.00;29.50;;;;;8.80;58.42;102937.63;2071865;28;47318;-61
2022/01/23 05:35:08;;;;;;;;;32.75;29.75;;;;;8.81;58.43;102936.75;2067636;28;47302;-60
2022/01/23 05:36:08;;;;;;;;;26.60;24.80;;;;;8.80;58.28;102931.44;2070830;28;47223;-60
2022/01/23 05:37:09;;;;;;;;;22.75;20.75;;;;;8.81;58.37;102943.81;2066386;28;47462;-59
2022/01/23 05:38:09;;;;;;;;;29.00;26.75;;;;;8.80;58.25;102934.97;2068977;28;47928;-60
2022/01/23 05:39:10;;;;;;;;;26.00;24.25;;;;;8.80;58.10;102936.72;2069514;28;48141;-60
2022/01/23 05:40:14;;;;;;;;;32.50;30.50;;;;;8.80;58.24;102934.97;2065769;28;45338;-59
2022/01/23 05:41:14;;;;;;;;;27.20;25.40;;;;;8.78;58.16;102926.09;2070300;28;45429;-61
2022/01/23 05:42:15;;;;;;;;;27.50;25.75;;;;;8.78;58.23;102933.16;2067929;28;46158;-61
2022/01/23 05:43:17;;;;;;;;;28.75;26.75;;;;;8.78;58.57;102935.81;2066987;28;45401;-61
2022/01/23 05:44:18;;;;;;;;;34.60;26.80;;;;;8.77;58.04;102934.03;2071159;28;47359;-61
2022/01/23 05:45:19;;;;;;;;;24.50;23.75;;;;;8.78;58.17;102925.22;2067485;28;46924;-60
2022/01/23 05:46:20;;;;;;;;;28.80;26.80;;;;;8.77;58.22;102934.91;2071890;28;48309;-60
2022/01/23 05:47:20;;;;;;;;;25.00;23.50;;;;;8.77;58.16;102928.72;2071665;28;48044;-60
2022/01/23 05:48:21;;;;;;;;;30.25;27.00;;;;;8.77;58.16;102926.09;2071726;28;47079;-60
2022/01/23 05:49:22;;;;;;;;;34.00;31.50;;;;;8.77;58.37;102936.66;2069782;28;47533;-60
2022/01/23 05:50:22;;;;;;;;;33.25;28.00;;;;;8.77;58.14;102939.31;2069178;28;47755;-64
2022/01/23 05:51:23;;;;;;;;;35.75;31.00;;;;;8.77;58.16;102936.66;2071873;28;48043;-60
2022/01/23 05:52:23;;;;;;;;;27.00;26.00;;;;;8.76;58.28;102929.56;2071943;28;47292;-60
2022/01/23 05:53:23;;;;;;;;;31.00;28.50;;;;;8.76;58.12;102930.44;2070492;28;48310;-61
2022/01/23 05:54:24;;;;;;;;;23.50;23.00;;;;;8.77;58.19;102939.31;2063532;28;47856;-61
2022/01/23 05:55:24;;;;;;;;;27.50;24.75;;;;;8.77;58.33;102939.31;2070928;28;48572;-61
2022/01/23 05:56:25;;;;;;;;;27.75;24.50;;;;;8.76;58.17;102951.63;2067012;28;47676;-61
2022/01/23 05:57:25;;;;;;;;;27.25;24.50;;;;;8.77;58.23;102947.25;2069719;28;46948;-61
2022/01/23 05:58:26;;;;;;;;;25.25;25.25;;;;;8.75;58.29;102941.91;2071087;28;47434;-61
2022/01/23 05:59:26;;;;;;;;;24.50;22.50;;;;;8.75;58.35;102944.56;2066800;28;48176;-61
2022/01/23 06:00:27;;;;;;;;;27.50;24.25;;;;;8.75;58.22;102946.31;2069231;28;48100;-61
2022/01/23 06:01:27;;;;;;;;;24.50;22.75;;;;;8.74;58.29;102948.06;2071227;28;47231;-60
2022/01/23 06:02:28;;;;;;;;;20.00;20.00;;;;;8.74;58.47;102948.06;2066665;28;47072;-60
2022/01/23 06:03:28;;;;;;;;;28.75;24.25;;;;;8.74;58.21;102948.06;2070823;28;48029;-60
2022/01/23 06:04:28;;;;;;;;;22.75;22.25;;;;;8.74;58.27;102949.81;2071345;28;47332;-60
2022/01/23 06:05:29;;;;;;;;;26.50;25.25;;;;;8.72;58.26;102947.13;2068645;28;48132;-60
2022/01/23 06:06:29;;;;;;;;;24.50;21.00;;;;;8.72;58.39;102946.25;2069127;28;47935;-60
2022/01/23 06:07:30;;;;;;;;;30.75;27.50;;;;;8.74;58.46;102949.81;2069823;28;47209;-61
2022/01/23 06:08:30;;;;;;;;;31.00;23.00;;;;;8.73;58.32;102948.03;2070332;28;48146;-61
2022/01/23 06:09:31;;;;;;;;;22.25;20.75;;;;;8.74;58.47;102950.72;2067879;28;47553;-60
2022/01/23 06:10:46;;;;;;;;;28.50;23.50;;;;;8.73;58.45;102942.75;2067039;28;47506;-60
2022/01/23 06:11:47;;;;;;;;;24.80;24.00;;;;;8.72;58.33;102947.13;2071771;28;47762;-59
2022/01/23 06:12:47;;;;;;;;;24.50;24.25;;;;;8.73;58.25;102953.31;2071721;28;47239;-61
2022/01/23 06:13:48;;;;;;;;;21.25;20.75;;;;;8.72;58.32;102949.78;2070644;28;47248;-60
2022/01/23 06:14:48;;;;;;;;;17.25;15.75;;;;;8.73;58.32;102948.03;2071371;28;47492;-61
2022/01/23 06:15:49;;;;;;;;;29.25;24.50;;;;;8.73;58.35;102950.69;2066451;28;47255;-60
2022/01/23 06:16:49;;;;;;;;;22.75;22.75;;;;;8.72;58.18;102952.44;2068158;28;48430;-60
2022/01/23 06:17:50;;;;;;;;;20.75;20.25;;;;;8.72;58.16;102948.91;2060772;28;46948;-60
2022/01/23 06:18:50;;;;;;;;;22.25;21.25;;;;;8.72;57.99;102944.50;2062659;28;48361;-61
2022/01/23 06:19:50;;;;;;;;;25.25;19.00;;;;;8.72;58.15;102948.91;2071526;28;47479;-60
2022/01/23 06:20:51;;;;;;;;;20.00;20.00;;;;;8.72;58.05;102941.84;2071653;28;47853;-60
2022/01/23 06:21:52;;;;;;;;;28.50;22.25;;;;;8.72;57.89;102943.59;2071425;28;47294;-60
2022/01/23 06:22:52;;;;;;;;;18.00;16.25;;;;;8.71;58.05;102944.47;2071579;28;47352;-60
2022/01/23 06:24:22;;;;;;;;;21.00;20.25;;;;;8.71;58.12;102942.72;2071664;28;47141;-60
2022/01/23 06:25:17;;;;;;;;;19.80;17.40;;;;;8.70;57.99;102943.56;2066473;28;47448;-61
2022/01/23 06:26:20;;;;;;;;;22.60;20.20;;;;;8.70;58.00;102948.88;2069799;28;46999;-60
2022/01/23 06:27:20;;;;;;;;;24.20;20.20;;;;;8.69;58.00;102941.78;2070176;28;47464;-61
2022/01/23 06:28:36;;;;;;;;;22.50;21.25;;;;;8.70;58.00;102942.69;2067671;28;47161;-60
2022/01/23 06:29:37;;;;;;;;;23.00;18.60;;;;;8.69;57.98;102935.59;2068855;28;47454;-61
2022/01/23 06:30:38;;;;;;;;;21.00;21.00;;;;;8.68;57.68;102940.00;2061453;28;46167;-60
2022/01/23 06:31:39;;;;;;;;;21.40;18.00;;;;;8.68;57.85;102936.47;2059016;28;48307;-60
2022/01/23 06:32:40;;;;;;;;;20.00;16.40;;;;;8.68;57.97;102940.00;2076087;28;48065;-60
2022/01/23 06:33:41;;;;;;;;;24.50;21.25;;;;;8.68;57.77;102941.75;2071335;28;48006;-62
2022/01/23 06:34:42;;;;;;;;;21.50;19.00;;;;;8.67;58.33;102940.88;2071536;28;47076;-60
2022/01/23 06:35:42;;;;;;;;;24.20;20.80;;;;;8.66;57.94;102948.78;2071825;28;48357;-60
2022/01/23 06:36:43;;;;;;;;;23.25;18.75;;;;;8.67;58.15;102945.28;2067434;28;47383;-61
2022/01/23 06:37:43;;;;;;;;;23.80;19.00;;;;;8.66;58.24;102947.03;2068373;28;47489;-60
2022/01/23 06:38:44;;;;;;;;;18.25;16.50;;;;;8.66;58.07;102949.66;2070658;28;47181;-60
2022/01/23 06:39:44;;;;;;;;;20.00;15.75;;;;;8.65;58.07;102947.88;2071455;28;47202;-61
2022/01/23 06:40:45;;;;;;;;;17.25;16.25;;;;;8.66;58.17;102959.38;2070110;28;47132;-61
2022/01/23 06:41:45;;;;;;;;;18.50;17.50;;;;;8.67;58.05;102945.28;2069392;28;48208;-60
2022/01/23 06:42:46;;;;;;;;;19.75;15.75;;;;;8.65;57.76;102939.94;2067578;28;48046;-61
2022/01/23 06:43:46;;;;;;;;;14.00;12.00;;;;;8.66;57.93;102939.09;2062832;28;47041;-61
2022/01/23 06:44:47;;;;;;;;;16.50;15.25;;;;;8.68;57.85;102936.47;2058729;28;48317;-61
2022/01/23 06:45:47;;;;;;;;;16.75;15.00;;;;;8.66;58.00;102939.09;2068184;28;47940;-61
2022/01/23 06:46:47;;;;;;;;;15.00;13.50;;;;;8.66;58.14;102932.91;2070788;28;47115;-62
2022/01/23 06:47:48;;;;;;;;;13.75;11.25;;;;;8.66;58.14;102939.09;2067506;28;47590;-61
2022/01/23 06:48:48;;;;;;;;;12.00;12.00;;;;;8.68;58.18;102944.41;2054525;28;47913;-62
2022/01/23 06:49:49;;;;;;;;;14.25;10.25;;;;;8.66;58.02;102941.72;2060120;28;45432;-61
2022/01/23 06:50:50;;;;;;;;;11.25;11.25;;;;;8.66;57.97;102932.91;2072224;28;47222;-60
2022/01/23 06:51:51;;;;;;;;;12.25;12.25;;;;;8.66;58.04;102941.72;2072968;28;48025;-60
2022/01/23 06:52:51;;;;;;;;;12.80;12.80;;;;;8.65;57.93;102936.41;2067431;28;48653;-61
2022/01/23 06:53:52;;;;;;;;;20.00;17.75;;;;;8.64;57.97;102943.44;2070590;28;46953;-60
2022/01/23 06:54:52;;;;;;;;;13.67;13.00;;;;;8.63;57.83;102946.94;2066259;28;48457;-60
2022/01/23 06:55:53;;;;;;;;;19.00;14.50;;;;;8.63;58.00;102946.03;2070933;28;47425;-60
2022/01/23 06:56:53;;;;;;;;;16.50;14.25;;;;;8.62;58.04;102944.25;2063150;28;45985;-60
2022/01/23 06:57:54;;;;;;;;;20.50;14.50;;;;;8.62;57.80;102954.84;2068570;28;47003;-61
2022/01/23 06:58:54;;;;;;;;;15.33;12.00;;;;;8.62;58.15;102958.38;2071524;28;47958;-61
2022/01/23 06:59:54;;;;;;;;;14.50;13.25;;;;;8.62;58.02;102955.72;2071215;28;47061;-61
2022/01/23 07:00:55;;;;;;;;;16.50;13.50;;;;;8.63;58.07;102956.63;2071188;28;47001;-61
2022/01/23 07:01:55;;;;;;;;;14.67;13.33;;;;;8.64;57.89;102958.41;2071580;28;47240;-61
2022/01/23 07:02:56;;;;;;;;;19.75;17.75;;;;;8.63;57.89;102946.94;2071060;28;47333;-61
2022/01/23 07:03:56;;;;;;;;;15.50;13.50;;;;;8.64;57.98;102958.41;2071189;28;45471;-61
2022/01/23 07:04:56;;;;;;;;;16.50;14.25;;;;;8.63;58.08;102962.81;2071252;28;47374;-61
2022/01/23 07:05:57;;;;;;;;;13.50;13.25;;;;;8.63;58.07;102959.28;2071274;28;47815;-60
2022/01/23 07:06:57;;;;;;;;;13.75;13.00;;;;;8.62;57.87;102966.31;2071546;28;47270;-60
2022/01/23 07:07:58;;;;;;;;;16.50;15.75;;;;;8.63;58.04;102964.56;2071200;28;46798;-61
2022/01/23 07:08:58;;;;;;;;;16.50;15.50;;;;;8.61;57.90;102956.59;2071027;28;47087;-60
2022/01/23 07:09:59;;;;;;;;;13.50;12.25;;;;;8.62;57.99;102958.38;2071354;28;46776;-61
2022/01/23 07:10:59;;;;;;;;;13.50;13.50;;;;;8.62;58.32;102966.31;2071095;28;47299;-61
2022/01/23 07:12:00;;;;;;;;;15.00;14.50;;;;;8.62;57.92;102955.72;2071358;28;47599;-60
2022/01/23 07:13:00;;;;;;;;;20.50;17.50;;;;;8.63;58.13;102959.28;2071234;28;47918;-60
2022/01/23 07:14:01;;;;;;;;;15.00;14.00;;;;;8.63;58.01;102959.28;2071487;28;47411;-63